Time;durP1;ratioP1;P1;durP2;ratioP2;P2;SDS_P1;SDS_P2;PMS_P1;PMS_P2;Temp;Humidity;BMP_temperature;BMP_pressure;BME280_temperature;BME280_humidity;BME280_pressure;Samples;Min_cycle;Max_cycle;Signal;HPM_P1;HPM_P2
2022/10/22 00:02:21;;;;;;;30.08;15.75;;;;;;;3.60;78.40;101172.33;1674265;85;21208;-79
2022/10/22 00:05:27;;;;;;;25.43;15.58;;;;;;;3.60;78.30;101162.86;1674375;85;21258;-78
2022/10/22 00:08:33;;;;;;;25.02;14.80;;;;;;;3.52;78.25;101172.00;1674236;85;21201;-78
2022/10/22 00:11:40;;;;;;;27.80;15.93;;;;;;;3.37;78.67;101162.29;1674284;85;21216;-78
2022/10/22 00:14:46;;;;;;;26.27;15.93;;;;;;;3.41;78.61;101152.98;1673072;85;21261;-79
2022/10/22 00:17:53;;;;;;;25.12;15.48;;;;;;;3.26;78.91;101145.00;1673092;85;21177;-78
2022/10/22 00:20:58;;;;;;;26.68;16.50;;;;;;;3.26;79.25;101155.81;1673327;85;21283;-78
2022/10/22 00:23:57;;;;;;;22.67;14.70;;;;;;;3.28;79.48;101160.61;1674235;85;21247;-78
2022/10/22 00:27:04;;;;;;;25.00;15.88;;;;;;;3.27;79.44;101159.37;1674474;85;21219;-78
2022/10/22 00:30:09;;;;;;;23.95;15.88;;;;;;;3.21;79.44;101149.01;1672984;85;21244;-79
2022/10/22 00:33:16;;;;;;;24.23;16.40;;;;;;;3.18;79.76;101152.78;1673051;85;21192;-78
2022/10/22 00:36:22;;;;;;;25.23;15.72;;;;;;;3.14;79.70;101153.09;1674027;85;21303;-78
2022/10/22 00:39:29;;;;;;;26.57;16.65;;;;;;;3.14;79.91;101148.55;1674304;85;21208;-78
2022/10/22 00:42:35;;;;;;;25.55;15.50;;;;;;;3.18;80.25;101139.75;1666965;85;21887;-78
2022/10/22 00:45:42;;;;;;;30.77;16.87;;;;;;;3.21;80.67;101137.70;1664392;86;21228;-78
2022/10/22 00:48:48;;;;;;;23.27;15.95;;;;;;;3.25;80.82;101133.81;1664454;86;21207;-79
2022/10/22 00:51:54;;;;;;;23.90;15.63;;;;;;;3.27;81.08;101133.69;1663124;86;21855;-78
2022/10/22 00:54:59;;;;;;;29.80;15.40;;;;;;;3.29;81.19;101129.92;1664468;86;21767;-78
2022/10/22 00:58:05;;;;;;;23.52;14.83;;;;;;;3.30;81.24;101126.23;1664541;86;21807;-78
2022/10/22 01:01:10;;;;;;;26.05;15.15;;;;;;;3.31;81.23;101123.90;1646179;86;21197;-78
2022/10/22 01:04:17;;;;;;;23.35;15.08;;;;;;;3.34;81.42;101126.88;1664440;86;21208;-78
2022/10/22 01:07:27;;;;;;;22.85;14.90;;;;;;;3.33;81.56;101130.05;1663857;86;21292;-78
2022/10/22 01:11:05;;;;;;;25.92;14.05;;;;;;;3.33;81.65;101128.70;1663407;86;21236;-78
2022/10/22 01:14:36;;;;;;;25.00;15.88;;;;;;;3.36;81.63;101127.63;1664552;86;21847;-78
2022/10/22 01:18:13;;;;;;;18.90;12.23;;;;;;;3.32;82.00;101124.27;1582700;90;21205;-78
2022/10/22 01:21:39;;;;;;;19.67;13.98;;;;;;;3.34;81.99;101122.83;1663181;86;21228;-78
2022/10/22 01:24:54;;;;;;;25.48;15.90;;;;;;;3.33;81.95;101127.34;1664561;86;21486;-80
2022/10/22 01:28:05;;;;;;;25.02;14.15;;;;;;;3.27;82.25;101125.58;1663200;86;21213;-78
2022/10/22 01:31:11;;;;;;;22.60;12.23;;;;;;;3.28;82.50;101129.52;1663254;86;21743;-78
2022/10/22 01:34:17;;;;;;;29.55;14.10;;;;;;;3.26;82.50;101133.32;1663264;86;21209;-78
2022/10/22 01:37:22;;;;;;;24.55;14.38;;;;;;;3.34;82.19;101122.83;1664178;86;21244;-78
2022/10/22 01:40:27;;;;;;;24.02;14.80;;;;;;;3.29;82.10;101129.92;1663217;85;21260;-78
2022/10/22 01:43:33;;;;;;;21.50;13.55;;;;;;;3.24;82.06;101126.64;1664439;85;21233;-79
2022/10/22 01:46:39;;;;;;;23.35;13.78;;;;;;;3.19;82.15;101135.58;1664481;86;21197;-79
2022/10/22 01:50:07;;;;;;;25.52;14.15;;;;;;;3.14;82.08;101135.04;1664420;86;21799;-79
2022/10/22 01:53:37;;;;;;;25.25;15.25;;;;;;;3.06;82.04;101140.14;1663830;86;21221;-78
2022/10/22 01:57:05;;;;;;;22.02;13.72;;;;;;;3.12;81.61;101133.44;1664431;86;21236;-79
2022/10/22 02:00:18;;;;;;;23.65;13.55;;;;;;;3.16;81.51;101131.76;1618599;88;21230;-78
2022/10/22 02:03:24;;;;;;;23.80;14.65;;;;;;;3.11;81.58;101129.87;1664479;86;21732;-79
2022/10/22 02:06:30;;;;;;;30.05;16.97;;;;;;;3.12;81.48;101134.79;1664354;86;21196;-78
2022/10/22 02:09:36;;;;;;;22.35;13.10;;;;;;;3.10;81.50;101136.22;1662988;86;21193;-78
2022/10/22 02:12:42;;;;;;;31.93;15.58;;;;;;;3.12;81.32;101145.11;1663293;86;21224;-78
2022/10/22 02:15:48;;;;;;;28.57;15.20;;;;;;;3.07;81.43;101140.52;1663210;85;21759;-78
2022/10/22 02:18:57;;;;;;;26.15;15.18;;;;;;;3.13;81.26;101149.53;1663200;86;21209;-78
2022/10/22 02:22:03;;;;;;;34.23;16.65;;;;;;;3.18;80.95;101148.72;1663316;85;21224;-78
2022/10/22 02:25:10;;;;;;;26.52;15.38;;;;;;;3.11;81.11;101152.84;1664431;86;21193;-78
2022/10/22 02:28:33;;;;;;;33.30;16.82;;;;;;;3.04;81.54;101152.39;1664422;86;21260;-78
2022/10/22 02:31:43;;;;;;;23.25;14.60;;;;;;;3.02;81.70;101158.89;1664117;86;21241;-78
2022/10/22 02:34:50;;;;;;;26.15;13.98;;;;;;;2.92;81.92;101158.67;1664677;86;21246;-78
2022/10/22 02:37:57;;;;;;;22.52;14.03;;;;;;;2.90;81.87;101153.84;1664413;86;21838;-78
2022/10/22 02:41:03;;;;;;;36.83;15.80;;;;;;;2.96;81.96;101160.16;1664398;86;21212;-78
2022/10/22 02:44:11;;;;;;;25.75;14.38;;;;;;;2.98;81.92;101158.73;1655397;85;21320;-79
2022/10/22 02:47:17;;;;;;;25.97;14.65;;;;;;;2.99;81.80;101162.66;1666070;85;21766;-78
2022/10/22 02:50:22;;;;;;;26.48;15.08;;;;;;;2.97;81.78;101165.11;1683660;85;21204;-78
2022/10/22 02:53:28;;;;;;;27.58;15.03;;;;;;;2.97;81.79;101159.70;1682353;85;21208;-78
2022/10/22 02:56:34;;;;;;;29.07;17.25;;;;;;;2.99;81.79;101161.80;1683697;85;21260;-79
2022/10/22 02:59:40;;;;;;;30.25;17.17;;;;;;;3.04;81.77;101164.55;1683729;85;21196;-78
2022/10/22 03:02:47;;;;;;;26.00;16.42;;;;;;;3.15;81.46;101154.83;1682982;85;21211;-78
2022/10/22 03:05:53;;;;;;;29.05;16.02;;;;;;;3.19;81.26;101156.34;1683554;85;21206;-79
2022/10/22 03:08:58;;;;;;;26.37;15.32;;;;;;;3.19;81.48;101163.97;1683302;85;21242;-78
2022/10/22 03:11:57;;;;;;;29.27;17.23;;;;;;;3.21;81.48;101161.17;1682478;85;21247;-78
2022/10/22 03:15:04;;;;;;;30.50;18.50;;;;;;;3.21;81.50;101160.69;1683559;85;21271;-78
2022/10/22 03:18:10;;;;;;;28.35;17.17;;;;;;;3.19;81.60;101159.91;1682378;85;21220;-78
2022/10/22 03:21:29;;;;;;;32.78;16.07;;;;;;;3.24;81.59;101156.39;1683612;85;21200;-79
2022/10/22 03:24:51;;;;;;;27.77;16.07;;;;;;;3.33;81.01;101160.28;1683267;85;21548;-78
2022/10/22 03:27:58;;;;;;;28.55;17.00;;;;;;;3.28;81.29;101166.51;1683619;85;21184;-78
2022/10/22 03:31:04;;;;;;;30.15;15.63;;;;;;;2.89;82.68;101170.17;1684564;85;21212;-79
2022/10/22 03:34:10;;;;;;;26.95;16.85;;;;;;;2.90;82.68;101168.70;1682820;85;21224;-78
2022/10/22 03:37:17;;;;;;;30.08;16.30;;;;;;;2.79;82.97;101168.59;1682361;85;21211;-79
2022/10/22 03:40:24;;;;;;;25.00;15.63;;;;;;;2.80;83.16;101163.08;1682691;85;21223;-78
2022/10/22 03:43:30;;;;;;;26.15;15.75;;;;;;;2.96;82.73;101168.77;1682924;85;21220;-78
2022/10/22 03:46:35;;;;;;;30.02;15.78;;;;;;;2.94;82.41;101170.23;1662285;86;21228;-78
2022/10/22 03:49:40;;;;;;;27.45;15.78;;;;;;;2.95;82.32;101169.74;1664319;86;21220;-78
2022/10/22 03:52:46;;;;;;;26.17;16.25;;;;;;;3.04;81.65;101170.45;1664122;86;21282;-78
2022/10/22 03:55:53;;;;;;;32.80;15.72;;;;;;;2.92;82.19;101169.48;1663201;86;21288;-78
2022/10/22 03:58:58;;;;;;;28.55;16.40;;;;;;;2.89;82.58;101172.87;1664256;86;21511;-78
2022/10/22 04:02:03;;;;;;;27.77;16.02;;;;;;;2.83;82.60;101173.31;1646666;86;21221;-78
2022/10/22 04:05:09;;;;;;;28.87;15.90;;;;;;;2.94;82.07;101177.48;1664153;86;21209;-77
2022/10/22 04:08:15;;;;;;;31.55;17.57;;;;;;;2.95;82.28;101175.15;1664239;86;21252;-77
2022/10/22 04:11:21;;;;;;;28.98;17.90;;;;;;;2.93;82.36;101174.41;1663284;86;21240;-77
2022/10/22 04:14:26;;;;;;;34.35;18.07;;;;;;;2.93;82.44;101171.20;1643402;85;21248;-77
2022/10/22 04:17:33;;;;;;;35.85;16.95;;;;;;;3.14;82.02;101185.05;1627605;88;21386;-78
2022/10/22 04:20:27;;;;;;;31.73;17.98;;;;;;;3.08;82.08;101178.73;1627632;88;21268;-77
2022/10/22 04:23:33;;;;;;;28.67;17.35;;;;;;;3.00;82.86;101184.66;1627233;88;21216;-78
2022/10/22 04:26:39;;;;;;;27.98;17.82;;;;;;;2.97;83.41;101183.54;1595835;89;21293;-78
2022/10/22 04:29:45;;;;;;;29.80;18.35;;;;;;;3.09;83.44;101187.22;1596938;90;21226;-78
2022/10/22 04:32:51;;;;;;;31.93;18.27;;;;;;;3.03;83.74;101180.89;1608245;88;21183;-78
2022/10/22 04:35:57;;;;;;;33.42;17.50;;;;;;;3.14;83.71;101176.94;1636396;87;21193;-78
2022/10/22 04:39:06;;;;;;;28.12;17.65;;;;;;;3.25;84.16;101177.07;1637327;87;21189;-78
2022/10/22 04:42:12;;;;;;;34.10;18.45;;;;;;;3.40;84.26;101172.91;1636126;87;21802;-78
2022/10/22 04:45:17;;;;;;;35.63;18.27;;;;;;;3.60;84.23;101169.63;1637181;87;21205;-78
2022/10/22 04:48:22;;;;;;;34.58;19.02;;;;;;;3.63;84.72;101166.70;1644858;87;21772;-78
2022/10/22 04:51:30;;;;;;;36.42;21.85;;;;;;;3.97;84.32;101171.87;1626486;88;21217;-78
2022/10/22 04:54:30;;;;;;;38.55;21.57;;;;;;;3.93;84.74;101172.20;1629097;87;21579;-78
2022/10/22 04:57:23;;;;;;;34.53;20.65;;;;;;;4.32;83.91;101173.29;1626835;88;21271;-78
2022/10/22 05:00:29;;;;;;;23.27;13.62;;;;;;;4.50;83.97;101179.17;1627508;88;21292;-78
2022/10/22 05:03:35;;;;;;;32.95;18.67;;;;;;;4.64;83.80;101190.32;1639245;87;21210;-78
2022/10/22 05:06:42;;;;;;;38.20;18.25;;;;;;;4.84;83.47;101190.14;1643783;87;21211;-79
2022/10/22 05:09:49;;;;;;;35.20;16.20;;;;;;;4.83;83.85;101199.27;1602963;89;21356;-78
2022/10/22 05:12:58;;;;;;;33.75;18.12;;;;;;;5.01;83.67;101202.41;1630417;87;21780;-78
2022/10/22 05:16:05;;;;;;;48.85;17.42;;;;;;;5.18;83.13;101201.97;1643511;87;21359;-78
2022/10/22 05:19:11;;;;;;;41.60;21.35;;;;;;;5.09;83.30;101204.05;1643582;87;21233;-78
2022/10/22 05:22:18;;;;;;;40.50;17.10;;;;;;;5.17;83.47;101202.93;1640003;87;21763;-79
2022/10/22 05:25:24;;;;;;;58.35;17.25;;;;;;;5.21;83.40;101209.84;1628109;87;21182;-78
2022/10/22 05:28:30;;;;;;;83.75;17.27;;;;;;;5.24;83.67;101204.20;1627284;88;21831;-78
2022/10/22 05:31:35;;;;;;;95.35;17.85;;;;;;;5.28;83.91;101207.54;1628165;88;21227;-78
2022/10/22 05:34:40;;;;;;;69.53;15.15;;;;;;;5.47;83.69;101209.17;1627391;88;21250;-78
2022/10/22 05:37:47;;;;;;;106.07;14.70;;;;;;;5.58;83.70;101215.95;1628624;88;21211;-78
2022/10/22 05:40:53;;;;;;;99.42;15.08;;;;;;;5.76;83.42;101221.77;1646025;87;21737;-78
2022/10/22 05:43:54;;;;;;;125.75;14.65;;;;;;;5.85;82.92;101212.02;1628924;87;21232;-78
2022/10/22 05:46:48;;;;;;;64.95;12.68;;;;;;;6.14;82.35;101209.67;1634015;86;21292;-78
2022/10/22 05:49:56;;;;;;;73.40;10.73;;;;;;;6.31;82.05;101213.23;1674364;85;21199;-78
2022/10/22 05:53:03;;;;;;;115.82;12.73;;;;;;;6.44;81.94;101214.91;1674017;85;21810;-78
2022/10/22 05:56:11;;;;;;;112.57;11.80;;;;;;;6.82;81.41;101211.69;1672795;85;21813;-78
2022/10/22 05:59:17;;;;;;;111.28;11.53;;;;;;;6.76;81.74;101213.58;1674647;85;21192;-78
2022/10/22 06:02:24;;;;;;;132.10;10.58;;;;;;;6.71;82.43;101210.39;1672313;85;21197;-79
2022/10/22 06:05:24;;;;;;;64.25;9.55;;;;;;;6.82;82.45;101212.58;1645090;87;21729;-79
2022/10/22 06:08:30;;;;;;;64.07;10.58;;;;;;;6.76;83.09;101214.44;1670601;85;22893;-80
2022/10/22 06:11:36;;;;;;;58.70;8.08;;;;;;;6.86;83.00;101215.38;1675508;85;21263;-79
2022/10/22 06:14:42;;;;;;;53.48;8.08;;;;;;;7.10;82.80;101209.69;1646869;87;21295;-79
2022/10/22 06:17:49;;;;;;;32.93;8.95;;;;;;;7.06;83.11;101213.70;1625544;87;21261;-79
2022/10/22 06:20:55;;;;;;;13.70;6.05;;;;;;;7.30;82.89;101205.27;1645487;87;21249;-79
2022/10/22 06:24:03;;;;;;;7.83;6.62;;;;;;;7.46;83.00;101205.28;1663876;86;21198;-79
2022/10/22 06:27:11;;;;;;;9.98;7.10;;;;;;;7.54;83.22;101202.76;1663720;86;21245;-79
2022/10/22 06:30:12;;;;;;;10.08;5.25;;;;;;;7.64;83.89;101210.48;1672851;84;21166;-79
2022/10/22 06:33:18;;;;;;;8.20;6.33;;;;;;;7.85;83.90;101210.41;1659290;84;21233;-80
2022/10/22 06:36:28;;;;;;;6.50;5.75;;;;;;;7.99;84.27;101208.68;1621096;86;21229;-80
2022/10/22 06:39:33;;;;;;;8.30;6.87;;;;;;;8.16;84.29;101211.27;1687004;85;21256;-80
2022/10/22 06:42:40;;;;;;;12.80;7.92;;;;;;;8.36;84.19;101200.79;1687334;85;21239;-80
2022/10/22 06:45:46;;;;;;;13.28;7.35;;;;;;;8.53;84.15;101203.84;1686355;85;21209;-80
2022/10/22 06:49:04;;;;;;;11.53;8.13;;;;;;;8.57;84.71;101203.42;1693717;84;21291;-80
2022/10/22 06:52:10;;;;;;;12.20;7.97;;;;;;;8.75;84.97;101200.86;1699472;84;21614;-80
2022/10/22 06:55:16;;;;;;;13.48;7.47;;;;;;;8.64;86.11;101197.75;1695190;84;21188;-80
2022/10/22 06:58:22;;;;;;;15.35;8.95;;;;;;;8.79;86.42;101196.81;1679827;85;21229;-80
2022/10/22 07:01:31;;;;;;;11.48;9.00;;;;;;;8.94;86.70;101194.04;1684991;85;21200;-80
2022/10/22 07:04:37;;;;;;;11.10;8.53;;;;;;;9.12;86.62;101190.55;1675904;85;21219;-80
2022/10/22 07:07:42;;;;;;;11.08;8.63;;;;;;;9.29;86.39;101195.79;1693234;84;21259;-79
2022/10/22 07:10:49;;;;;;;16.10;8.93;;;;;;;9.44;85.96;101201.99;1699511;84;21227;-79
2022/10/22 07:13:54;;;;;;;16.85;9.20;;;;;;;9.72;85.00;101196.09;1700284;84;21243;-79
2022/10/22 07:17:01;;;;;;;17.60;9.65;;;;;;;9.97;83.80;101198.67;1693593;84;21221;-79
2022/10/22 07:20:07;;;;;;;12.15;8.40;;;;;;;10.27;82.99;101193.94;1678396;85;21205;-78
2022/10/22 07:23:13;;;;;;;12.78;8.58;;;;;;;10.47;82.54;101194.67;1686077;85;21169;-79
2022/10/22 07:26:24;;;;;;;17.25;8.68;;;;;;;10.45;82.33;101197.56;1685572;85;21522;-79
2022/10/22 07:29:30;;;;;;;11.55;8.60;;;;;;;10.51;82.06;101192.49;1658040;86;21232;-79
2022/10/22 07:32:30;;;;;;;13.32;8.05;;;;;;;10.59;81.91;101191.22;1658652;86;21759;-80
2022/10/22 07:35:29;;;;;;;10.60;7.22;;;;;;;10.81;80.98;101188.52;1630015;88;22502;-79
2022/10/22 07:38:28;;;;;;;10.65;6.53;;;;;;;10.95;79.53;101183.34;1630032;88;21277;-79
2022/10/22 07:41:35;;;;;;;8.43;6.60;;;;;;;11.43;76.99;101177.92;1677282;84;22398;-79
2022/10/22 07:44:41;;;;;;;10.50;6.60;;;;;;;11.64;75.21;101179.41;1677226;85;22510;-79
2022/10/22 07:47:47;;;;;;;9.50;5.75;;;;;;;11.64;74.54;101182.15;1677206;85;21858;-79
2022/10/22 07:50:57;;;;;;;16.55;7.00;;;;;;;11.87;73.29;101177.86;1663576;85;21302;-79
2022/10/22 07:54:02;;;;;;;9.03;5.55;;;;;;;11.91;72.36;101184.73;1655235;85;21251;-79
2022/10/22 07:57:08;;;;;;;8.75;5.17;;;;;;;11.93;71.39;101186.78;1670687;85;21266;-79
2022/10/22 08:00:14;;;;;;;9.30;5.30;;;;;;;12.08;70.64;101183.42;1678129;85;21240;-79
2022/10/22 08:03:22;;;;;;;7.67;6.10;;;;;;;12.09;70.36;101179.17;1683877;85;21222;-79
2022/10/22 08:06:22;;;;;;;8.03;5.83;;;;;;;12.11;70.06;101180.36;1631679;87;21259;-79
2022/10/22 08:09:16;;;;;;;9.20;6.42;;;;;;;11.93;70.58;101178.56;1646580;87;21248;-78
2022/10/22 08:12:22;;;;;;;8.33;5.70;;;;;;;12.17;69.72;101179.69;1643379;87;21217;-78
2022/10/22 08:15:28;;;;;;;9.15;6.20;;;;;;;12.12;69.90;101182.93;1640071;86;21257;-79
2022/10/22 08:18:34;;;;;;;7.95;4.95;;;;;;;12.52;68.52;101181.36;1653087;86;21213;-80
2022/10/22 08:21:40;;;;;;;6.55;4.75;;;;;;;12.72;67.19;101178.64;1662520;86;21208;-80
2022/10/22 08:24:46;;;;;;;6.83;5.15;;;;;;;12.68;66.76;101181.38;1668844;84;21233;-80
2022/10/22 08:27:51;;;;;;;7.85;5.15;;;;;;;12.78;66.50;101180.70;1665449;84;21209;-80
2022/10/22 08:30:57;;;;;;;8.13;4.67;;;;;;;12.86;66.38;101181.76;1672547;85;21315;-80
2022/10/22 08:34:02;;;;;;;11.55;5.55;;;;;;;12.83;66.49;101182.94;1670055;85;21188;-80
2022/10/22 08:37:09;;;;;;;6.78;4.62;;;;;;;12.80;66.83;101177.81;1663050;85;22501;-80
2022/10/22 08:40:17;;;;;;;8.25;4.60;;;;;;;12.94;66.11;101177.13;1662630;85;21216;-80
2022/10/22 08:43:58;;;;;;;7.17;4.30;;;;;;;12.83;66.75;101175.22;1656777;85;21222;-80
2022/10/22 08:47:30;;;;;;;10.85;4.30;;;;;;;12.92;66.83;101164.59;1646082;87;21855;-79
2022/10/22 08:50:50;;;;;;;3.62;2.80;;;;;;;13.03;66.31;101172.48;1646122;86;21253;-79
2022/10/22 08:54:21;;;;;;;8.15;3.00;;;;;;;13.08;65.10;101166.47;1648506;86;21217;-78
2022/10/22 08:57:57;;;;;;;5.42;3.72;;;;;;;13.17;64.81;101161.32;1643898;86;21417;-78
2022/10/22 09:01:08;;;;;;;4.20;2.70;;;;;;;13.23;64.31;101161.53;1644966;86;21239;-79
2022/10/22 09:04:36;;;;;;;4.35;2.80;;;;;;;13.33;64.37;101162.73;1640135;86;21381;-78
2022/10/22 09:07:42;;;;;;;3.92;2.70;;;;;;;13.44;64.33;101154.63;1644786;86;21223;-78
2022/10/22 09:10:54;;;;;;;4.70;2.55;;;;;;;13.59;63.14;101147.89;1643433;87;21305;-79
2022/10/22 09:14:00;;;;;;;4.17;2.52;;;;;;;13.65;62.26;101138.45;1629765;87;21224;-80
2022/10/22 09:17:34;;;;;;;8.53;2.15;;;;;;;13.65;62.20;101137.59;1635417;87;21333;-79
2022/10/22 09:20:56;;;;;;;8.75;2.35;;;;;;;13.69;61.71;101136.18;1628598;88;21229;-80
2022/10/22 09:24:12;;;;;;;4.22;2.22;;;;;;;13.80;61.28;101127.56;1626811;88;21250;-80
2022/10/22 09:27:22;;;;;;;3.02;1.95;;;;;;;13.92;61.40;101135.75;1644334;86;21254;-80
2022/10/22 09:30:23;;;;;;;3.08;1.87;;;;;;;14.11;61.41;101138.59;1643368;87;21245;-80
2022/10/22 09:33:34;;;;;;;5.42;1.77;;;;;;;14.28;61.16;101135.25;1644025;87;21222;-79
2022/10/22 09:36:22;;;;;;;2.85;1.65;;;;;;;14.56;59.65;101129.59;1643578;86;21225;-79
2022/10/22 09:39:33;;;;;;;3.72;1.67;;;;;;;14.64;58.96;101130.59;1617762;87;21271;-80
2022/10/22 09:42:38;;;;;;;5.83;1.60;;;;;;;14.58;59.24;101121.14;1616255;88;21236;-80
2022/10/22 09:45:45;;;;;;;1.98;1.37;;;;;;;14.59;58.67;101117.90;1618110;88;21264;-81
2022/10/22 09:48:52;;;;;;;3.65;1.45;;;;;;;14.91;57.00;101118.99;1612052;88;21240;-80
2022/10/22 09:52:03;;;;;;;2.52;1.60;;;;;;;15.08;56.39;101106.80;1638565;86;21233;-80
2022/10/22 09:55:11;;;;;;;2.62;1.40;;;;;;;15.26;55.25;101104.23;1666024;86;21254;-79
2022/10/22 09:58:10;;;;;;;1.92;1.25;;;;;;;15.20;54.97;101107.74;1670936;86;21237;-79
2022/10/22 10:01:28;;;;;;;1.42;1.12;;;;;;;15.25;54.23;101113.02;1649084;86;21596;-78
2022/10/22 10:04:35;;;;;;;2.17;1.30;;;;;;;14.80;54.59;101108.42;1668611;86;21217;-78
2022/10/22 10:07:42;;;;;;;1.67;1.30;;;;;;;14.94;55.04;101113.12;1668783;86;21241;-79
2022/10/22 10:11:08;;;;;;;1.22;0.98;;;;;;;15.08;54.30;101097.16;1670870;84;21191;-78
2022/10/22 10:14:45;;;;;;;1.70;1.10;;;;;;;14.99;54.34;101094.66;1668648;85;21252;-78
2022/10/22 10:17:59;;;;;;;3.20;1.35;;;;;;;15.04;54.41;101090.83;1629508;86;21252;-79
2022/10/22 10:21:35;;;;;;;2.05;1.62;;;;;;;14.80;55.27;101080.89;1661928;86;21754;-78
2022/10/22 10:24:54;;;;;;;2.52;1.60;;;;;;;15.01;54.85;101084.33;1643554;86;21220;-79
2022/10/22 10:28:43;;;;;;;4.25;2.80;;;;;;;15.23;54.11;101083.92;1651869;86;21192;-80
2022/10/22 10:31:58;;;;;;;3.10;2.15;;;;;;;15.42;53.96;101081.98;1665792;86;21747;-80
2022/10/22 10:35:27;;;;;;;2.05;1.62;;;;;;;15.42;53.68;101079.23;1670802;86;21231;-80
2022/10/22 10:38:50;;;;;;;2.17;1.60;;;;;;;15.60;53.11;101078.34;1669016;86;21873;-79
2022/10/22 10:42:18;;;;;;;1.40;1.00;;;;;;;15.53;52.41;101064.14;1644461;87;21219;-79
2022/10/22 10:45:45;;;;;;;1.50;1.40;;;;;;;15.50;51.82;101059.85;1647757;86;21224;-79
2022/10/22 10:49:09;;;;;;;2.12;1.40;;;;;;;15.33;52.44;101054.18;1666154;86;21485;-79
2022/10/22 10:52:35;;;;;;;2.55;1.17;;;;;;;15.17;52.13;101058.51;1669208;86;21264;-79
2022/10/22 10:56:19;;;;;;;1.62;1.40;;;;;;;15.11;52.13;101046.87;1671724;85;21219;-79
2022/10/22 11:00:09;;;;;;;5.20;3.05;;;;;;;15.01;52.66;101047.14;1672579;85;21242;-79
2022/10/22 11:03:40;;;;;;;2.80;2.00;;;;;;;14.96;53.71;101042.69;1652747;86;21212;-78
2022/10/22 11:06:46;;;;;;;3.17;1.47;;;;;;;14.43;54.87;101043.98;1654757;86;21252;-78
2022/10/22 11:10:00;;;;;;;2.58;1.50;;;;;;;14.37;54.55;101035.09;1673337;85;21242;-78
2022/10/22 11:13:03;;;;;;;4.95;1.80;;;;;;;14.38;54.51;101034.56;1672702;85;21210;-79
2022/10/22 11:16:35;;;;;;;2.08;1.67;;;;;;;14.40;55.04;101036.11;1666597;85;21189;-78
2022/10/22 11:20:04;;;;;;;2.67;1.70;;;;;;;11.74;63.85;101029.41;1663713;86;21237;-78
2022/10/22 11:23:23;;;;;;;6.17;2.02;;;;;;;11.63;65.47;101022.36;1664578;86;21194;-78
2022/10/22 11:26:50;;;;;;;4.72;2.58;;;;;;;11.54;66.75;101020.61;1664032;86;21231;-79
2022/10/22 11:30:08;;;;;;;2.40;1.67;;;;;;;12.46;64.53;101012.75;1654561;85;21232;-78
2022/10/22 11:33:17;;;;;;;2.42;1.67;;;;;;;12.87;62.38;101008.61;1677763;85;21768;-79
2022/10/22 11:36:25;;;;;;;1.52;1.30;;;;;;;13.15;61.20;101004.08;1677310;85;21179;-79
2022/10/22 11:39:42;;;;;;;4.40;1.60;;;;;;;13.25;60.06;100999.27;1672769;85;21229;-78
2022/10/22 11:42:52;;;;;;;2.80;1.80;;;;;;;13.01;60.80;100991.41;1660707;86;21207;-78
2022/10/22 11:46:00;;;;;;;2.45;1.60;;;;;;;12.89;60.66;100998.32;1663282;86;21816;-78
2022/10/22 11:49:24;;;;;;;2.65;1.77;;;;;;;11.87;63.35;100990.08;1644451;86;21221;-78
2022/10/22 11:52:33;;;;;;;3.08;1.60;;;;;;;11.71;65.41;100987.25;1663493;86;21864;-79
2022/10/22 11:55:51;;;;;;;3.08;2.10;;;;;;;12.17;64.37;100984.45;1691127;84;21255;-79
2022/10/22 11:58:57;;;;;;;2.87;1.67;;;;;;;12.26;63.52;100974.34;1655971;86;21236;-79
2022/10/22 12:02:03;;;;;;;2.12;1.92;;;;;;;12.36;63.03;100968.69;1684640;84;21185;-79
2022/10/22 12:05:32;;;;;;;2.02;1.70;;;;;;;12.36;62.49;100968.17;1682525;84;21256;-79
2022/10/22 12:08:38;;;;;;;1.67;1.40;;;;;;;12.62;62.06;100968.52;1578375;89;21313;-79
2022/10/22 12:11:54;;;;;;;2.15;1.42;;;;;;;12.52;62.78;100968.18;1678236;85;21260;-80
2022/10/22 12:15:06;;;;;;;6.37;1.60;;;;;;;12.56;62.12;100961.80;1683870;84;21200;-80
2022/10/22 12:18:15;;;;;;;16.57;2.83;;;;;;;12.39;62.62;100961.50;1676737;84;21209;-80
2022/10/22 12:21:21;;;;;;;2.55;2.10;;;;;;;12.44;62.92;100963.20;1660733;85;21787;-78
2022/10/22 12:24:26;;;;;;;4.75;2.30;;;;;;;12.38;62.72;100959.80;1658272;84;21237;-79
2022/10/22 12:27:32;;;;;;;5.72;1.77;;;;;;;12.45;62.29;100956.17;1660828;85;21257;-79
2022/10/22 12:30:40;;;;;;;2.65;1.90;;;;;;;12.48;61.91;100958.58;1685314;85;21228;-79
2022/10/22 12:33:45;;;;;;;4.08;1.80;;;;;;;12.60;61.84;100954.09;1684231;85;21232;-79
2022/10/22 12:37:54;;;;;;;2.55;2.05;;;;;;;12.73;61.55;100953.05;1685609;85;21200;-78
2022/10/22 12:40:56;;;;;;;4.53;2.33;;;;;;;12.73;61.65;100953.05;1684618;85;21787;-81
2022/10/22 12:43:49;;;;;;;2.22;1.95;;;;;;;12.77;61.63;100951.14;1684699;85;21217;-81
2022/10/22 12:46:55;;;;;;;2.05;1.57;;;;;;;12.87;61.18;100948.20;1685122;85;21775;-79
2022/10/22 12:50:01;;;;;;;2.58;2.08;;;;;;;12.72;61.38;100954.94;1684224;85;21244;-79
2022/10/22 12:53:08;;;;;;;5.42;1.70;;;;;;;12.83;61.72;100948.73;1683081;85;21208;-78
2022/10/22 12:56:21;;;;;;;2.85;1.57;;;;;;;12.90;61.35;100944.27;1671288;85;21282;-78
2022/10/22 12:59:35;;;;;;;4.10;1.82;;;;;;;12.71;61.30;100937.28;1662649;86;21219;-78
2022/10/22 13:02:44;;;;;;;2.55;1.22;;;;;;;12.76;61.03;100945.84;1671647;86;22457;-78
2022/10/22 13:05:49;;;;;;;3.10;1.70;;;;;;;12.68;61.32;100945.85;1671248;86;21797;-78
2022/10/22 13:09:12;;;;;;;3.22;1.87;;;;;;;12.73;61.42;100942.06;1671630;86;21231;-78
2022/10/22 13:12:20;;;;;;;6.78;2.30;;;;;;;12.61;61.76;100934.73;1650416;86;21786;-81
2022/10/22 13:15:30;;;;;;;3.85;2.08;;;;;;;12.61;61.97;100932.47;1669419;85;21260;-79
2022/10/22 13:18:39;;;;;;;2.87;2.05;;;;;;;12.56;62.48;100932.14;1654984;86;21285;-80
2022/10/22 13:21:47;;;;;;;4.53;2.52;;;;;;;12.51;62.77;100920.31;1650117;86;21217;-79
2022/10/22 13:24:58;;;;;;;3.83;1.95;;;;;;;12.72;62.61;100921.14;1669419;86;21220;-79
2022/10/22 13:28:28;;;;;;;3.30;2.20;;;;;;;12.78;62.21;100913.05;1645466;87;21325;-79
2022/10/22 13:31:37;;;;;;;4.00;2.02;;;;;;;12.71;62.59;100909.83;1644518;87;22280;-80
2022/10/22 13:34:43;;;;;;;2.40;1.45;;;;;;;12.86;62.10;100916.30;1643146;86;21238;-79
2022/10/22 13:37:49;;;;;;;5.28;1.70;;;;;;;12.84;61.99;100912.00;1644717;87;21794;-80
2022/10/22 13:40:54;;;;;;;2.25;1.80;;;;;;;12.81;62.11;100914.59;1643303;87;21267;-79
2022/10/22 13:43:59;;;;;;;4.65;2.77;;;;;;;12.72;62.53;100904.67;1644532;87;21270;-79
2022/10/22 13:47:05;;;;;;;4.08;2.50;;;;;;;12.73;62.80;100910.50;1644288;87;21841;-80
2022/10/22 13:50:11;;;;;;;3.30;2.33;;;;;;;12.76;62.70;100906.89;1644045;87;21263;-79
2022/10/22 13:53:22;;;;;;;5.30;2.55;;;;;;;12.75;62.10;100900.18;1644488;87;21602;-79
2022/10/22 13:56:28;;;;;;;5.17;2.60;;;;;;;12.66;61.98;100895.78;1635769;87;21251;-79
2022/10/22 13:59:34;;;;;;;3.62;2.30;;;;;;;12.63;62.38;100898.34;1645051;87;21219;-79
2022/10/22 14:02:41;;;;;;;5.62;2.67;;;;;;;12.47;62.75;100895.66;1644384;87;21231;-79
2022/10/22 14:05:47;;;;;;;5.37;2.83;;;;;;;12.33;63.02;100894.95;1644608;87;21231;-79
2022/10/22 14:08:55;;;;;;;4.47;2.72;;;;;;;12.39;63.09;100886.91;1644327;87;22589;-79
2022/10/22 14:12:03;;;;;;;3.65;2.30;;;;;;;12.47;62.88;100890.16;1644538;86;21218;-79
2022/10/22 14:15:11;;;;;;;6.22;2.52;;;;;;;12.50;62.00;100878.30;1645550;87;21196;-79
2022/10/22 14:18:23;;;;;;;4.35;2.77;;;;;;;12.42;62.11;100879.72;1645603;87;21785;-79
2022/10/22 14:21:27;;;;;;;4.25;2.20;;;;;;;12.33;62.38;100882.62;1644360;87;22496;-79
2022/10/22 14:24:33;;;;;;;3.27;2.52;;;;;;;12.47;61.58;100881.94;1644237;87;21763;-81
2022/10/22 14:27:39;;;;;;;3.30;2.37;;;;;;;12.41;61.56;100881.23;1645573;87;22496;-81
2022/10/22 14:30:46;;;;;;;2.80;2.45;;;;;;;12.53;61.31;100879.85;1645565;87;21223;-78
2022/10/22 14:33:52;;;;;;;3.80;2.92;;;;;;;12.52;61.25;100883.12;1644432;87;21814;-79
2022/10/22 14:36:58;;;;;;;5.40;2.80;;;;;;;12.57;60.85;100881.73;1644256;87;21223;-78
2022/10/22 14:40:03;;;;;;;9.18;3.60;;;;;;;12.43;61.27;100883.31;1645547;87;21207;-78